Terminal Aerodrome Forecast
Issued by NWS

Current Version | Previous Version | Text Only | Print | Product List | Glossary On
Versions: 1 2 3 4 5 6 7 8 9 10 11 12 13 14 15 16 17 18 19 20 21 22 23 24 25 26 27 28 29 30 31 32 33 34 35 36 37 38 39 40 41 42 43
000
FTUS46 KPQR 170525
TAFONP
TAF
KONP 170525Z 1706/1806 VRB03KT P6SM SCT035 SCT100 BKN250
     FM171200 21003KT P6SM SCT060 BKN100 BKN250
     FM171700 29007KT P6SM SCT045 BKN070 BKN100
     FM172200 29006KT P6SM VCSH BKN045 OVC070
     FM180200 25006KT 4SM -SHRA BR SCT030 OVC045=

USA.gov is the U.S. government's official web portal to all federal, state and local government web resources and services.